Time;durP1;ratioP1;P1;durP2;ratioP2;P2;SDS_P1;SDS_P2;PMS_P1;PMS_P2;Temp;Humidity;BMP_temperature;BMP_pressure;BME280_temperature;BME280_humidity;BME280_pressure;Samples;Min_cycle;Max_cycle;Signal;HPM_P1;HPM_P2
2021/10/19 00:00:54;;;;;;;28.75;17.35;;;10.90;99.90;;;;;;5033937;28;20035;-71
2021/10/19 00:03:20;;;;;;;28.73;18.50;;;10.90;99.90;;;;;;5033900;28;20033;-72
2021/10/19 00:05:45;;;;;;;29.00;17.83;;;10.90;99.90;;;;;;5033579;28;20064;-71
2021/10/19 00:08:11;;;;;;;26.95;17.75;;;10.90;99.90;;;;;;5033480;28;20059;-72
2021/10/19 00:10:36;;;;;;;27.13;18.30;;;10.80;99.90;;;;;;5033544;28;20021;-72
2021/10/19 00:13:02;;;;;;;30.80;19.27;;;10.90;99.90;;;;;;5033259;28;20053;-72
2021/10/19 00:15:28;;;;;;;27.00;17.05;;;11.00;99.90;;;;;;5032070;28;20079;-71
2021/10/19 00:17:53;;;;;;;30.08;19.42;;;11.00;99.90;;;;;;5049383;28;20028;-71
2021/10/19 00:20:19;;;;;;;34.10;20.20;;;11.10;99.90;;;;;;5033720;28;20423;-72
2021/10/19 00:22:44;;;;;;;31.73;19.77;;;11.10;99.90;;;;;;5033462;28;20360;-72
2021/10/19 00:25:15;;;;;;;32.08;19.70;;;11.20;99.90;;;;;;5032235;28;20022;-72
2021/10/19 00:27:41;;;;;;;29.30;19.73;;;11.20;99.90;;;;;;5048412;28;20163;-72
2021/10/19 00:30:10;;;;;;;29.17;19.55;;;11.20;99.90;;;;;;5048615;28;20378;-72
2021/10/19 00:32:36;;;;;;;29.95;18.95;;;11.30;99.90;;;;;;5033618;28;20017;-71
2021/10/19 00:35:02;;;;;;;27.42;18.88;;;11.30;99.90;;;;;;5033614;28;20451;-72
2021/10/19 00:37:28;;;;;;;28.92;18.58;;;11.30;99.90;;;;;;5032429;28;20109;-72
2021/10/19 00:39:53;;;;;;;37.47;19.98;;;11.30;99.90;;;;;;5033315;28;20375;-72
2021/10/19 00:42:19;;;;;;;30.92;19.42;;;11.40;99.90;;;;;;5033267;28;20039;-72
2021/10/19 00:44:45;;;;;;;26.95;17.50;;;11.30;99.90;;;;;;5031816;28;20075;-72
2021/10/19 00:47:18;;;;;;;29.40;18.23;;;11.40;99.90;;;;;;5033436;28;20383;-71
2021/10/19 00:49:44;;;;;;;28.52;18.85;;;11.30;99.90;;;;;;5033519;28;20049;-72
2021/10/19 00:52:09;;;;;;;26.27;17.80;;;11.30;99.90;;;;;;5032276;28;20017;-71
2021/10/19 00:54:35;;;;;;;29.40;17.45;;;11.30;99.90;;;;;;5033453;28;20349;-72
2021/10/19 00:57:01;;;;;;;30.45;16.85;;;11.20;99.90;;;;;;5034526;28;20105;-72
2021/10/19 00:59:27;;;;;;;28.35;18.30;;;11.20;99.90;;;;;;5035555;28;20075;-72
2021/10/19 01:01:53;;;;;;;23.65;16.48;;;11.20;99.90;;;;;;5036953;28;20033;-72
2021/10/19 01:04:18;;;;;;;29.17;18.23;;;11.10;99.90;;;;;;5036621;28;20029;-72
2021/10/19 01:06:45;;;;;;;33.35;20.70;;;11.10;99.90;;;;;;5036594;28;20087;-72
2021/10/19 01:09:11;;;;;;;31.00;19.33;;;11.10;99.90;;;;;;5036719;28;20474;-71
2021/10/19 01:11:37;;;;;;;29.52;19.27;;;11.10;99.90;;;;;;5036216;28;20033;-72
2021/10/19 01:14:03;;;;;;;28.67;18.88;;;11.10;99.90;;;;;;5036454;28;20029;-71
2021/10/19 01:16:28;;;;;;;32.03;19.52;;;11.10;99.90;;;;;;5034957;28;20071;-72
2021/10/19 01:18:54;;;;;;;26.80;17.00;;;11.10;99.90;;;;;;5034869;28;20451;-72
2021/10/19 01:21:20;;;;;;;29.00;19.30;;;11.20;99.90;;;;;;5036594;28;20116;-72
2021/10/19 01:23:46;;;;;;;25.67;16.90;;;11.20;99.90;;;;;;5036575;28;20030;-71
2021/10/19 01:26:12;;;;;;;23.73;15.60;;;11.20;99.90;;;;;;5036536;28;20032;-72
2021/10/19 01:28:42;;;;;;;24.60;16.40;;;11.20;99.90;;;;;;5036120;28;20025;-72
2021/10/19 01:31:08;;;;;;;24.80;16.75;;;11.20;99.90;;;;;;5036140;28;20021;-71
2021/10/19 01:33:34;;;;;;;27.75;17.30;;;11.30;99.90;;;;;;5036351;28;20088;-72
2021/10/19 01:36:00;;;;;;;28.02;18.67;;;11.30;99.90;;;;;;5036372;28;20462;-72
2021/10/19 01:38:28;;;;;;;27.98;17.48;;;11.30;99.90;;;;;;5036279;28;20032;-72
2021/10/19 01:40:54;;;;;;;27.40;17.25;;;11.30;99.90;;;;;;5036012;28;20148;-72
2021/10/19 01:43:22;;;;;;;27.83;18.05;;;11.30;99.90;;;;;;5034516;28;20022;-71
2021/10/19 01:45:49;;;;;;;28.95;20.00;;;11.30;99.90;;;;;;5035907;28;20032;-72
2021/10/19 01:48:15;;;;;;;25.58;17.05;;;11.30;99.90;;;;;;5034600;28;20038;-72
2021/10/19 01:50:41;;;;;;;27.15;17.38;;;11.40;99.90;;;;;;5036072;28;20032;-72
2021/10/19 01:53:08;;;;;;;25.90;17.70;;;11.40;99.90;;;;;;5035759;28;20129;-71
2021/10/19 01:55:34;;;;;;;29.52;18.33;;;11.40;99.90;;;;;;5035940;28;20029;-71
2021/10/19 01:58:00;;;;;;;24.48;15.88;;;11.40;99.90;;;;;;5035709;28;20105;-71
2021/10/19 02:00:26;;;;;;;24.27;16.25;;;11.40;99.90;;;;;;5034526;28;20104;-71
2021/10/19 02:02:51;;;;;;;28.58;17.42;;;11.50;99.90;;;;;;5035805;28;20029;-72
2021/10/19 02:05:17;;;;;;;27.73;17.88;;;11.50;99.90;;;;;;5035496;28;20079;-72
2021/10/19 02:07:43;;;;;;;23.42;16.65;;;11.60;99.90;;;;;;5035709;28;20032;-72
2021/10/19 02:10:10;;;;;;;26.13;16.63;;;11.60;99.90;;;;;;5035607;28;20111;-72
2021/10/19 02:12:35;;;;;;;24.60;16.67;;;11.70;99.90;;;;;;5035387;28;20017;-72
2021/10/19 02:15:01;;;;;;;20.75;14.43;;;11.70;99.90;;;;;;5035622;28;20040;-72
2021/10/19 02:17:27;;;;;;;24.75;15.40;;;11.80;99.90;;;;;;5035560;28;20045;-72
2021/10/19 02:19:53;;;;;;;28.33;16.88;;;11.80;99.90;;;;;;5035207;28;20072;-72
2021/10/19 02:22:18;;;;;;;24.95;16.30;;;11.80;99.90;;;;;;5034920;28;20021;-72
2021/10/19 02:24:44;;;;;;;22.70;15.13;;;11.80;99.90;;;;;;5035150;28;20026;-72
2021/10/19 02:27:09;;;;;;;20.98;14.32;;;11.90;99.90;;;;;;5035068;28;20026;-72
2021/10/19 02:29:35;;;;;;;24.52;15.57;;;11.90;99.90;;;;;;5050067;28;20036;-72
2021/10/19 02:32:01;;;;;;;22.42;16.33;;;11.80;99.90;;;;;;5035276;28;20029;-72
2021/10/19 02:34:27;;;;;;;21.75;15.75;;;11.80;99.90;;;;;;5034948;28;20090;-72
2021/10/19 02:36:52;;;;;;;22.13;15.38;;;11.90;99.90;;;;;;5034044;28;20453;-72
2021/10/19 02:39:18;;;;;;;20.08;14.00;;;12.00;99.90;;;;;;5034857;28;20030;-72
2021/10/19 02:41:44;;;;;;;20.10;14.55;;;12.10;99.90;;;;;;5034533;28;20036;-72
2021/10/19 02:44:10;;;;;;;20.05;13.68;;;12.10;99.90;;;;;;5033905;28;20033;-72
2021/10/19 02:46:36;;;;;;;16.23;12.43;;;12.20;99.90;;;;;;5033581;28;20029;-71
2021/10/19 02:49:03;;;;;;;17.05;12.35;;;12.20;99.90;;;;;;5034352;28;20121;-72
2021/10/19 02:51:28;;;;;;;20.23;14.07;;;12.20;99.90;;;;;;5034907;28;20045;-72
2021/10/19 02:53:54;;;;;;;24.85;16.05;;;12.20;99.90;;;;;;5034859;28;20053;-72
2021/10/19 02:56:21;;;;;;;20.63;14.52;;;12.30;99.90;;;;;;5034799;28;20029;-72
2021/10/19 02:58:47;;;;;;;22.70;15.27;;;12.30;99.90;;;;;;5034743;28;20574;-72
2021/10/19 03:01:12;;;;;;;23.65;15.35;;;12.40;99.90;;;;;;5049527;28;20108;-72
2021/10/19 03:03:38;;;;;;;21.30;15.00;;;12.60;99.90;;;;;;5034679;28;20034;-72
2021/10/19 03:06:04;;;;;;;20.15;14.68;;;12.60;99.90;;;;;;5034380;28;20068;-72
2021/10/19 03:08:29;;;;;;;23.27;14.25;;;12.70;99.90;;;;;;5033094;28;20075;-72
2021/10/19 03:10:55;;;;;;;19.90;13.93;;;12.70;99.90;;;;;;5034588;28;20101;-72
2021/10/19 03:13:20;;;;;;;19.13;13.38;;;12.80;99.90;;;;;;5034491;28;20036;-72
2021/10/19 03:15:46;;;;;;;22.27;13.85;;;12.80;99.90;;;;;;5034462;28;20029;-72
2021/10/19 03:18:12;;;;;;;20.48;13.57;;;12.80;99.90;;;;;;5049196;28;20017;-72
2021/10/19 03:20:37;;;;;;;22.30;14.00;;;12.80;99.90;;;;;;5048853;28;20029;-72
2021/10/19 03:23:03;;;;;;;23.10;14.70;;;12.70;99.90;;;;;;5034109;28;20076;-72
2021/10/19 03:25:28;;;;;;;21.58;14.65;;;12.70;99.90;;;;;;5034372;28;20531;-72
2021/10/19 03:27:54;;;;;;;22.98;14.73;;;12.70;99.90;;;;;;5034060;28;20043;-72
2021/10/19 03:30:20;;;;;;;17.38;13.70;;;12.70;99.90;;;;;;5034183;28;20061;-72
2021/10/19 03:32:45;;;;;;;20.95;14.00;;;12.70;99.90;;;;;;5033973;28;20096;-71
2021/10/19 03:35:11;;;;;;;21.58;14.07;;;12.70;99.90;;;;;;5034213;28;20033;-72
2021/10/19 03:37:38;;;;;;;22.98;13.90;;;12.70;99.90;;;;;;5033873;28;20021;-72
2021/10/19 03:40:05;;;;;;;23.33;14.48;;;12.70;99.90;;;;;;5033875;28;20044;-72
2021/10/19 03:42:30;;;;;;;17.83;13.40;;;12.80;99.90;;;;;;5032882;28;20424;-72
2021/10/19 03:44:56;;;;;;;19.40;14.00;;;12.80;99.90;;;;;;5032666;28;20100;-72
2021/10/19 03:47:21;;;;;;;18.73;14.13;;;12.80;99.90;;;;;;5034096;28;20060;-72
2021/10/19 03:49:47;;;;;;;21.95;12.68;;;12.70;99.90;;;;;;5033312;28;20380;-72
2021/10/19 03:52:13;;;;;;;16.35;11.90;;;12.70;99.90;;;;;;5034004;28;20490;-72
2021/10/19 03:54:38;;;;;;;18.35;13.73;;;12.70;99.90;;;;;;5033443;28;20026;-72
2021/10/19 03:57:05;;;;;;;17.88;13.30;;;12.60;99.90;;;;;;5033730;28;20057;-72
2021/10/19 03:59:31;;;;;;;18.65;13.68;;;12.60;99.90;;;;;;5033659;28;20024;-72
2021/10/19 04:01:57;;;;;;;22.45;14.35;;;12.60;99.90;;;;;;5032446;28;20037;-72
2021/10/19 04:04:23;;;;;;;23.92;15.07;;;12.60;99.90;;;;;;5032490;28;20055;-72
2021/10/19 04:06:48;;;;;;;21.00;13.95;;;12.70;99.90;;;;;;5033895;28;20068;-72
2021/10/19 04:09:14;;;;;;;22.92;14.82;;;12.90;99.90;;;;;;5033532;28;20034;-72
2021/10/19 04:11:40;;;;;;;20.52;15.38;;;13.00;99.90;;;;;;5033803;28;20032;-71
2021/10/19 04:14:06;;;;;;;26.40;15.93;;;13.10;99.90;;;;;;5032381;28;20105;-72
2021/10/19 04:16:32;;;;;;;19.40;14.65;;;13.20;99.90;;;;;;5033801;28;20112;-72
2021/10/19 04:18:57;;;;;;;20.42;14.13;;;13.20;99.90;;;;;;5033521;28;20079;-72
2021/10/19 04:21:23;;;;;;;21.98;14.35;;;13.30;99.90;;;;;;5048596;28;20143;-72
2021/10/19 04:23:48;;;;;;;20.98;13.95;;;13.30;99.90;;;;;;5033177;28;20365;-72
2021/10/19 04:26:14;;;;;;;21.60;14.35;;;13.40;99.90;;;;;;5033434;28;20057;-72
2021/10/19 04:28:41;;;;;;;21.48;13.98;;;13.40;99.90;;;;;;5048420;28;20026;-72
2021/10/19 04:31:06;;;;;;;22.77;13.88;;;13.40;99.90;;;;;;5049404;28;20022;-72
2021/10/19 04:33:32;;;;;;;19.30;13.75;;;13.40;99.90;;;;;;5036955;28;20037;-72
2021/10/19 04:35:58;;;;;;;19.40;14.43;;;13.50;99.90;;;;;;5037453;28;20032;-72
2021/10/19 04:38:23;;;;;;;21.92;15.23;;;13.50;99.90;;;;;;5037432;28;20029;-72
2021/10/19 04:40:49;;;;;;;24.08;15.68;;;13.50;99.90;;;;;;5037343;28;20021;-72
2021/10/19 04:43:14;;;;;;;24.80;15.27;;;13.50;99.90;;;;;;5037326;28;20028;-72
2021/10/19 04:45:40;;;;;;;21.52;15.35;;;13.50;99.90;;;;;;5036161;28;20463;-72
2021/10/19 04:48:05;;;;;;;22.40;15.48;;;13.50;99.90;;;;;;5037018;28;20446;-72
2021/10/19 04:50:31;;;;;;;23.17;15.38;;;13.50;99.90;;;;;;5036797;28;20056;-72
2021/10/19 04:52:57;;;;;;;24.13;16.35;;;13.40;99.90;;;;;;5037104;28;20036;-72
2021/10/19 04:55:22;;;;;;;25.83;16.17;;;13.30;99.90;;;;;;5051957;28;20075;-72
2021/10/19 04:57:48;;;;;;;26.90;17.48;;;13.20;99.90;;;;;;5035864;28;20021;-71
2021/10/19 05:00:14;;;;;;;25.75;18.17;;;13.20;99.90;;;;;;5035265;28;20033;-72
2021/10/19 05:02:49;;;;;;;29.70;18.08;;;13.10;99.90;;;;;;5052375;28;20120;-72
2021/10/19 05:05:16;;;;;;;27.27;19.05;;;13.10;99.90;;;;;;5036754;28;20087;-71
2021/10/19 05:07:41;;;;;;;25.23;18.88;;;13.00;99.90;;;;;;5036856;28;20064;-72
2021/10/19 05:10:07;;;;;;;29.95;19.77;;;13.00;99.90;;;;;;5036176;28;20072;-71
2021/10/19 05:12:33;;;;;;;26.92;19.58;;;12.90;99.90;;;;;;5036785;28;20018;-72
2021/10/19 05:14:59;;;;;;;26.98;19.48;;;12.90;99.90;;;;;;5036742;28;20473;-72
2021/10/19 05:17:24;;;;;;;26.35;19.05;;;12.90;99.90;;;;;;5036445;28;20028;-72
2021/10/19 05:19:50;;;;;;;27.10;19.20;;;12.80;99.90;;;;;;5036632;28;20033;-71
2021/10/19 05:22:16;;;;;;;28.55;18.88;;;12.80;99.90;;;;;;5034909;28;20118;-71
2021/10/19 05:24:42;;;;;;;27.90;19.55;;;12.80;99.90;;;;;;5036585;28;20032;-71
2021/10/19 05:27:08;;;;;;;25.13;18.75;;;12.80;99.90;;;;;;5051362;28;20029;-72
2021/10/19 05:29:33;;;;;;;28.17;20.10;;;12.70;99.90;;;;;;5036418;28;20101;-71
2021/10/19 05:31:59;;;;;;;29.33;20.05;;;12.70;99.90;;;;;;5052034;28;20064;-72
2021/10/19 05:34:25;;;;;;;34.45;20.55;;;12.70;99.90;;;;;;5036419;28;20021;-72
2021/10/19 05:36:51;;;;;;;29.10;19.42;;;12.70;99.90;;;;;;5036305;28;20485;-71
2021/10/19 05:39:18;;;;;;;28.67;19.60;;;12.70;99.90;;;;;;5035753;28;20095;-71
2021/10/19 05:41:44;;;;;;;30.95;19.92;;;12.70;99.90;;;;;;5035921;28;20024;-72
2021/10/19 05:44:10;;;;;;;30.25;19.95;;;12.70;99.90;;;;;;5036175;28;20108;-72
2021/10/19 05:46:35;;;;;;;27.67;19.15;;;12.70;99.90;;;;;;5036155;28;20044;-72
2021/10/19 05:49:01;;;;;;;30.30;20.35;;;12.70;99.90;;;;;;5035480;28;20057;-71
2021/10/19 05:51:26;;;;;;;27.98;19.00;;;12.70;99.90;;;;;;5035481;28;20064;-72
2021/10/19 05:53:52;;;;;;;26.55;17.92;;;12.70;99.90;;;;;;5035751;28;20021;-71
2021/10/19 05:56:17;;;;;;;25.98;17.98;;;12.70;99.90;;;;;;5035651;28;20026;-72
2021/10/19 05:58:43;;;;;;;28.90;19.70;;;12.70;99.90;;;;;;5034500;28;20467;-72
2021/10/19 06:01:09;;;;;;;29.73;18.77;;;12.80;99.90;;;;;;5035799;28;20053;-71
2021/10/19 06:03:34;;;;;;;32.20;19.13;;;12.80;99.90;;;;;;5035287;28;20104;-72
2021/10/19 06:06:00;;;;;;;27.30;18.75;;;12.80;99.90;;;;;;5035723;28;20478;-71
2021/10/19 06:08:25;;;;;;;25.90;18.75;;;12.70;99.90;;;;;;5070805;28;20025;-71
2021/10/19 06:10:55;;;;;;;25.25;18.60;;;12.80;99.90;;;;;;5064003;28;20022;-72
2021/10/19 06:13:20;;;;;;;26.27;17.27;;;12.80;99.90;;;;;;5058525;28;20075;-71
2021/10/19 06:15:46;;;;;;;28.73;18.48;;;12.70;99.90;;;;;;5055179;28;20033;-72
2021/10/19 06:18:12;;;;;;;28.00;18.88;;;12.80;99.90;;;;;;5055354;28;20096;-71
2021/10/19 06:20:38;;;;;;;27.05;18.30;;;12.80;99.90;;;;;;5055083;28;20056;-71
2021/10/19 06:23:03;;;;;;;24.65;17.80;;;12.80;99.90;;;;;;5054057;28;20516;-72
2021/10/19 06:25:29;;;;;;;24.73;17.17;;;12.80;99.90;;;;;;5055279;28;20036;-71
2021/10/19 06:27:54;;;;;;;25.65;17.38;;;12.90;99.90;;;;;;5055245;28;20047;-72
2021/10/19 06:30:20;;;;;;;27.45;18.23;;;12.80;99.90;;;;;;5053419;28;20035;-71
2021/10/19 06:32:45;;;;;;;24.13;16.35;;;12.90;99.90;;;;;;5054680;28;20068;-72
2021/10/19 06:35:11;;;;;;;28.08;17.73;;;12.90;99.90;;;;;;5054345;28;20060;-72
2021/10/19 06:37:37;;;;;;;27.45;17.73;;;12.90;99.90;;;;;;5054716;28;20053;-71
2021/10/19 06:40:06;;;;;;;30.08;18.00;;;12.90;99.90;;;;;;5054384;28;20028;-72
2021/10/19 06:42:32;;;;;;;24.52;16.85;;;12.90;99.90;;;;;;5054886;28;20036;-71
2021/10/19 06:45:00;;;;;;;24.20;17.50;;;12.90;99.90;;;;;;5054860;28;20029;-71
2021/10/19 06:47:28;;;;;;;25.67;16.45;;;12.90;99.90;;;;;;5037279;28;20163;-71
2021/10/19 06:49:53;;;;;;;28.45;17.70;;;12.90;99.90;;;;;;5034050;28;20510;-72
2021/10/19 06:52:18;;;;;;;26.13;16.92;;;12.90;99.90;;;;;;5045798;28;20028;-71
2021/10/19 06:54:44;;;;;;;24.40;16.50;;;13.00;99.90;;;;;;5045810;28;20033;-71
2021/10/19 06:57:11;;;;;;;21.52;16.27;;;13.00;99.90;;;;;;5042176;28;20589;-72
2021/10/19 06:59:37;;;;;;;24.00;14.75;;;13.10;99.90;;;;;;5052534;28;20497;-72
2021/10/19 07:02:02;;;;;;;20.63;14.32;;;13.10;99.90;;;;;;5052552;28;20037;-72
2021/10/19 07:04:28;;;;;;;18.25;13.32;;;13.20;99.90;;;;;;5051698;28;20083;-72
2021/10/19 07:06:53;;;;;;;20.45;13.88;;;13.20;99.90;;;;;;5046815;28;20452;-72
2021/10/19 07:09:19;;;;;;;17.73;12.15;;;13.30;99.90;;;;;;5053758;28;20029;-72
2021/10/19 07:11:44;;;;;;;16.13;10.75;;;13.30;99.90;;;;;;5053996;28;20028;-72
2021/10/19 07:14:10;;;;;;;16.02;10.85;;;13.40;99.90;;;;;;5053974;28;20029;-72
2021/10/19 07:16:35;;;;;;;16.35;10.27;;;13.40;99.90;;;;;;5052624;28;20096;-67
2021/10/19 07:19:03;;;;;;;13.77;10.20;;;13.40;99.90;;;;;;5052368;28;20028;-67
2021/10/19 07:21:29;;;;;;;11.40;9.50;;;13.50;99.90;;;;;;5037114;28;20033;-67
2021/10/19 07:23:54;;;;;;;13.20;8.73;;;13.50;99.90;;;;;;5053441;28;20021;-67
2021/10/19 07:26:20;;;;;;;10.68;8.48;;;13.60;99.90;;;;;;5037809;28;20029;-67
2021/10/19 07:28:45;;;;;;;12.98;9.48;;;13.60;99.90;;;;;;5034148;28;20025;-66
2021/10/19 07:31:11;;;;;;;11.30;8.50;;;13.70;99.90;;;;;;5045806;28;20048;-72
2021/10/19 07:33:36;;;;;;;13.13;8.23;;;13.80;99.90;;;;;;5064330;28;20459;-72
2021/10/19 07:36:02;;;;;;;11.70;8.07;;;13.80;99.90;;;;;;5052600;28;20492;-72
2021/10/19 07:38:27;;;;;;;8.93;7.25;;;13.90;99.90;;;;;;5048055;28;20563;-73
2021/10/19 07:40:53;;;;;;;8.25;6.75;;;13.90;99.90;;;;;;5051720;28;20100;-72
2021/10/19 07:43:19;;;;;;;8.02;6.90;;;14.00;99.90;;;;;;5045870;28;20017;-72
2021/10/19 07:45:44;;;;;;;12.88;6.35;;;14.00;99.90;;;;;;5033422;28;20033;-72
2021/10/19 07:48:10;;;;;;;7.50;6.30;;;14.10;99.90;;;;;;5039118;28;20037;-72
2021/10/19 07:50:35;;;;;;;6.68;5.80;;;14.10;99.90;;;;;;5041490;28;20513;-72
2021/10/19 07:53:01;;;;;;;7.28;5.57;;;14.20;99.90;;;;;;5049931;28;20051;-73
2021/10/19 07:55:29;;;;;;;6.55;5.18;;;14.20;99.90;;;;;;5044298;28;20033;-72
2021/10/19 07:57:55;;;;;;;8.43;4.88;;;14.20;99.90;;;;;;5045878;28;20025;-73
2021/10/19 08:00:24;;;;;;;7.10;5.35;;;14.20;99.90;;;;;;5037113;28;20087;-73
2021/10/19 08:02:51;;;;;;;6.55;4.50;;;14.30;99.90;;;;;;5036503;28;20184;-73
2021/10/19 08:05:17;;;;;;;5.38;4.32;;;14.30;99.90;;;;;;5049134;28;20025;-73
2021/10/19 08:07:46;;;;;;;5.65;4.30;;;14.30;99.90;;;;;;5045327;28;20467;-73
2021/10/19 08:10:14;;;;;;;5.40;3.88;;;14.30;99.90;;;;;;5038283;28;20371;-73
2021/10/19 08:12:39;;;;;;;5.95;4.20;;;14.30;99.90;;;;;;5040694;28;20040;-73
2021/10/19 08:15:06;;;;;;;6.78;3.95;;;14.40;99.90;;;;;;5036291;28;20460;-72
2021/10/19 08:17:32;;;;;;;5.88;3.53;;;14.40;99.90;;;;;;5041390;28;20025;-73
2021/10/19 08:19:59;;;;;;;7.40;3.72;;;14.50;99.90;;;;;;5037943;28;20040;-73
2021/10/19 08:22:28;;;;;;;4.55;3.55;;;14.50;99.90;;;;;;5040299;28;20471;-73
2021/10/19 08:24:54;;;;;;;5.53;3.22;;;14.60;99.90;;;;;;5055465;28;20033;-73
2021/10/19 08:27:19;;;;;;;4.38;3.58;;;14.60;99.90;;;;;;5055622;28;20032;-73
2021/10/19 08:29:45;;;;;;;3.72;3.28;;;14.70;99.90;;;;;;5062076;28;20041;-72
2021/10/19 08:32:10;;;;;;;5.00;3.65;;;14.80;99.90;;;;;;5056515;28;20462;-73
2021/10/19 08:34:36;;;;;;;4.65;3.83;;;14.80;99.90;;;;;;5056550;28;20104;-73
2021/10/19 08:37:01;;;;;;;4.53;3.38;;;14.80;99.90;;;;;;5056796;28;20475;-73
2021/10/19 08:39:27;;;;;;;4.95;3.30;;;14.80;99.90;;;;;;5055147;28;20063;-73
2021/10/19 08:41:52;;;;;;;7.32;3.30;;;14.90;99.90;;;;;;5046206;28;20082;-74
2021/10/19 08:44:18;;;;;;;3.80;3.40;;;14.90;99.90;;;;;;5036694;28;20394;-73
2021/10/19 08:46:44;;;;;;;3.55;3.13;;;14.90;99.90;;;;;;5037379;28;20472;-73
2021/10/19 08:49:09;;;;;;;3.60;3.20;;;15.00;99.90;;;;;;5071311;28;20400;-73
2021/10/19 08:51:37;;;;;;;4.57;3.20;;;15.00;99.90;;;;;;5055680;28;20071;-73
2021/10/19 08:54:06;;;;;;;4.03;3.40;;;15.00;99.90;;;;;;5056468;28;20020;-73
2021/10/19 08:56:35;;;;;;;4.03;3.30;;;15.00;99.90;;;;;;5054632;28;20029;-73
2021/10/19 08:59:00;;;;;;;3.25;2.95;;;15.00;99.90;;;;;;5056645;28;20025;-72
2021/10/19 09:01:35;;;;;;;5.32;3.03;;;15.10;99.90;;;;;;5048151;28;20040;-73
2021/10/19 09:04:12;;;;;;;3.45;3.15;;;15.00;99.90;;;;;;5056127;28;20028;-73
2021/10/19 09:06:39;;;;;;;3.83;3.17;;;15.10;99.90;;;;;;5045530;28;20045;-73
2021/10/19 09:09:16;;;;;;;3.72;3.05;;;15.10;99.90;;;;;;5044881;28;20052;-72
2021/10/19 09:11:44;;;;;;;3.85;3.22;;;15.20;99.90;;;;;;5044920;28;20021;-72
2021/10/19 09:14:10;;;;;;;3.15;2.88;;;15.20;99.90;;;;;;5056439;28;20025;-73
2021/10/19 09:16:43;;;;;;;4.50;2.95;;;15.20;99.90;;;;;;5054457;28;20459;-73
2021/10/19 09:19:10;;;;;;;4.10;2.85;;;15.20;99.90;;;;;;5043354;28;20020;-72
2021/10/19 09:21:36;;;;;;;3.92;2.85;;;15.30;99.90;;;;;;5055647;28;20102;-73
2021/10/19 09:27:00;;;;;;;3.10;2.55;;;15.40;99.90;;;;;;5106630;27;20416;-73
2021/10/19 09:29:29;;;;;;;2.85;2.40;;;15.50;99.90;;;;;;5110995;28;20032;-73
2021/10/19 09:31:58;;;;;;;3.65;2.20;;;15.40;99.90;;;;;;5111109;28;20103;-73
2021/10/19 09:34:28;;;;;;;2.72;2.40;;;15.40;99.90;;;;;;5109897;28;20016;-73
2021/10/19 09:36:54;;;;;;;3.95;2.78;;;15.40;99.90;;;;;;5110916;28;20362;-73
2021/10/19 09:39:29;;;;;;;2.83;2.30;;;15.40;99.90;;;;;;5109163;28;20014;-73
2021/10/19 09:41:54;;;;;;;3.63;2.60;;;15.40;99.90;;;;;;5113734;28;20077;-73
2021/10/19 09:44:20;;;;;;;5.63;3.42;;;15.40;99.90;;;;;;5107792;28;20032;-73
2021/10/19 09:46:46;;;;;;;3.65;2.10;;;15.50;99.90;;;;;;5102016;28;20398;-73
2021/10/19 09:49:14;;;;;;;2.67;1.90;;;15.50;99.90;;;;;;5108667;28;20496;-73
2021/10/19 09:51:41;;;;;;;2.75;1.90;;;15.50;99.90;;;;;;5127409;28;20172;-72
2021/10/19 09:54:09;;;;;;;13.98;10.18;;;15.60;99.90;;;;;;5117220;28;20138;-72
2021/10/19 09:56:39;;;;;;;12.07;4.22;;;15.60;99.90;;;;;;5105487;28;20115;-72
2021/10/19 09:59:06;;;;;;;2.30;1.73;;;15.70;99.90;;;;;;5111960;28;20201;-73
2021/10/19 10:01:33;;;;;;;3.60;1.65;;;15.80;99.90;;;;;;5110281;28;20028;-73
2021/10/19 10:03:59;;;;;;;1.80;1.67;;;15.80;99.90;;;;;;5108428;28;20525;-73
2021/10/19 10:06:26;;;;;;;2.38;1.75;;;15.80;99.90;;;;;;5071709;28;20120;-72
2021/10/19 10:08:53;;;;;;;2.40;1.83;;;15.80;99.90;;;;;;5100818;28;20065;-72
2021/10/19 10:11:20;;;;;;;3.58;1.88;;;15.80;99.90;;;;;;5107276;28;20031;-72
2021/10/19 10:14:02;;;;;;;3.40;1.70;;;15.80;99.90;;;;;;5107775;28;20064;-72
2021/10/19 10:16:29;;;;;;;4.05;1.90;;;15.80;99.90;;;;;;5089866;28;20020;-72
2021/10/19 10:18:55;;;;;;;3.65;1.67;;;15.80;99.90;;;;;;5098923;28;20046;-73
2021/10/19 10:21:24;;;;;;;4.88;1.55;;;15.80;99.90;;;;;;5117794;28;20050;-73
2021/10/19 10:24:05;;;;;;;3.28;1.70;;;15.90;99.90;;;;;;5108991;28;20491;-73
2021/10/19 10:26:34;;;;;;;3.58;1.30;;;16.00;99.90;;;;;;5107376;28;20101;-73
2021/10/19 10:29:09;;;;;;;3.10;1.60;;;15.90;99.90;;;;;;5109039;28;20102;-72
2021/10/19 10:31:48;;;;;;;2.45;1.40;;;16.00;99.90;;;;;;5124669;28;20023;-68
2021/10/19 10:34:14;;;;;;;1.80;1.48;;;16.00;99.90;;;;;;5106634;28;20438;-69
2021/10/19 10:36:45;;;;;;;5.05;1.63;;;16.00;99.90;;;;;;5102428;28;20047;-68
2021/10/19 10:39:12;;;;;;;4.22;1.50;;;16.00;99.90;;;;;;5112101;28;20042;-69
2021/10/19 10:41:40;;;;;;;4.20;1.73;;;16.00;99.90;;;;;;5100492;28;20035;-69
2021/10/19 10:44:06;;;;;;;3.45;1.90;;;16.00;99.90;;;;;;5111805;28;20023;-67
2021/10/19 10:46:32;;;;;;;4.15;1.75;;;15.80;99.90;;;;;;5104779;28;20039;-69
2021/10/19 10:48:58;;;;;;;3.65;1.50;;;15.80;99.90;;;;;;5095531;28;20024;-68
2021/10/19 10:51:29;;;;;;;3.78;1.65;;;15.80;99.90;;;;;;5084026;28;20065;-69
2021/10/19 10:53:55;;;;;;;5.03;1.75;;;15.80;99.90;;;;;;5095043;28;20023;-67
2021/10/19 10:56:21;;;;;;;2.80;1.50;;;15.80;99.90;;;;;;5088607;28;20024;-66
2021/10/19 10:58:49;;;;;;;3.13;1.38;;;15.80;99.90;;;;;;5096025;28;20164;-67
2021/10/19 11:01:22;;;;;;;3.45;1.80;;;15.80;99.90;;;;;;5089169;28;20031;-68
2021/10/19 11:03:50;;;;;;;2.95;1.80;;;15.80;99.90;;;;;;5093360;28;20107;-69
2021/10/19 11:06:18;;;;;;;4.70;2.20;;;15.80;99.90;;;;;;5095067;28;20402;-68
2021/10/19 11:08:46;;;;;;;4.50;1.83;;;15.80;99.90;;;;;;5095848;28;20024;-67
2021/10/19 11:11:17;;;;;;;3.50;1.98;;;15.70;99.90;;;;;;5095488;28;20119;-67
2021/10/19 11:13:49;;;;;;;5.53;2.40;;;15.60;99.90;;;;;;5095161;28;20076;-69
2021/10/19 11:16:16;;;;;;;3.50;2.20;;;15.50;99.90;;;;;;5095584;28;20378;-69
2021/10/19 11:18:42;;;;;;;3.92;2.63;;;15.40;99.90;;;;;;5095486;28;20081;-69
2021/10/19 11:21:08;;;;;;;5.13;3.65;;;15.40;99.90;;;;;;5094356;28;20020;-70
2021/10/19 11:23:39;;;;;;;5.28;3.90;;;15.40;99.90;;;;;;5093777;28;20032;-69
2021/10/19 11:26:07;;;;;;;4.13;2.80;;;15.50;99.90;;;;;;5094865;28;20467;-68
2021/10/19 11:28:36;;;;;;;5.78;3.20;;;15.50;99.90;;;;;;5095302;28;20016;-69
2021/10/19 11:31:02;;;;;;;4.55;2.65;;;15.40;99.90;;;;;;5095040;28;20128;-69
2021/10/19 11:33:28;;;;;;;3.75;2.58;;;15.50;99.90;;;;;;5094733;28;20426;-68
2021/10/19 11:35:54;;;;;;;4.43;2.72;;;15.60;99.90;;;;;;5089456;28;20067;-71
2021/10/19 11:38:22;;;;;;;6.10;2.63;;;15.60;99.90;;;;;;5108143;28;20023;-70
2021/10/19 11:40:48;;;;;;;3.47;2.00;;;15.70;99.90;;;;;;5094348;28;20479;-70
2021/10/19 11:43:17;;;;;;;4.85;2.10;;;15.80;99.90;;;;;;5083989;28;20044;-69
2021/10/19 11:45:44;;;;;;;2.38;2.15;;;15.80;99.90;;;;;;5090882;28;20035;-70
2021/10/19 11:48:12;;;;;;;3.15;2.10;;;15.90;99.90;;;;;;5084913;28;20354;-69
2021/10/19 11:50:40;;;;;;;5.55;2.17;;;16.00;99.90;;;;;;5094678;28;20020;-69
2021/10/19 11:53:07;;;;;;;3.17;1.92;;;16.00;99.90;;;;;;5074717;28;20051;-71
2021/10/19 11:55:34;;;;;;;3.08;2.00;;;16.00;99.90;;;;;;5083121;28;20409;-69
2021/10/19 11:58:03;;;;;;;2.33;2.10;;;16.10;99.90;;;;;;5064651;28;20512;-68
2021/10/19 12:00:32;;;;;;;4.30;2.38;;;16.20;99.90;;;;;;5096695;28;20054;-69
2021/10/19 12:03:00;;;;;;;3.47;2.03;;;16.30;99.90;;;;;;5100302;28;20024;-71
2021/10/19 12:05:28;;;;;;;4.65;1.70;;;16.40;99.90;;;;;;5099698;28;20020;-69
2021/10/19 12:07:56;;;;;;;1.98;1.60;;;16.50;99.90;;;;;;5091814;28;20029;-69
2021/10/19 12:10:26;;;;;;;4.50;1.83;;;16.50;99.90;;;;;;5074435;28;20017;-70
2021/10/19 12:12:57;;;;;;;3.60;1.85;;;16.60;99.90;;;;;;5079493;28;20107;-70
2021/10/19 12:15:25;;;;;;;9.43;1.80;;;16.60;99.90;;;;;;5088603;28;20051;-70
2021/10/19 12:17:54;;;;;;;2.20;1.63;;;16.60;99.90;;;;;;5080591;28;20027;-70
2021/10/19 12:20:20;;;;;;;3.28;1.55;;;16.60;99.90;;;;;;5108549;28;20358;-70
2021/10/19 12:22:45;;;;;;;2.85;1.30;;;16.50;99.90;;;;;;5095141;28;20030;-69
2021/10/19 12:25:11;;;;;;;4.28;1.30;;;16.50;99.90;;;;;;5089106;28;20044;-70
2021/10/19 12:27:37;;;;;;;2.70;1.70;;;16.40;99.90;;;;;;5092802;28;20393;-69
2021/10/19 12:30:10;;;;;;;1.55;1.33;;;16.40;99.90;;;;;;5086856;28;20020;-69
2021/10/19 12:32:35;;;;;;;3.42;1.40;;;16.40;99.90;;;;;;5087613;28;20055;-70
2021/10/19 12:35:02;;;;;;;2.80;1.90;;;16.40;99.90;;;;;;5093592;28;20059;-68